Newberry, SC (29108)

6:26 PM EST on February 09, 2016 (GMT -0500)
Newberry | | Change Station
CLOSE
Current Station
Airport
Location: Newberry,
Elevation: 568 ft
Nearby Weather Stations
Active Advisory: Lake Wind Advisory

Elev 568 ft 34.31 °N, 81.64 °W | Updated 11 minutes ago

Overcast
Overcast
36 °F
Feels Like 30 °F
N
7
Wind Variable Wind from West

Today
High -- | Low -- °F
--% Chance of Precip.
Yesterday
High -- | Low -- °F
Precip. -- in
Pressure 29.87 in
Visibility 10.0 miles
Clouds Overcast 3100 ft
Windchill 30 °F
Dew Point 27 °F
Humidity 70%
Rainfall 0.00 in
Snow Depth Not available.
7:17 AM 6:03 PM
New Moon, 3% visible
METAR KEOE 092315Z AUTO 26006KT 10SM OVC031 02/M03 A2987 RMK AO2
Pressure 29.87 in
Visibility 10.0 miles
Clouds Overcast 3100 ft
Windchill 30 °F
Dew Point 27 °F
Humidity 70%
Rainfall 0.00 in
Snow Depth Not available.
7:17 AM 6:03 PM
New Moon, 3% visible
METAR KEOE 092315Z AUTO 26006KT 10SM OVC031 02/M03 A2987 RMK AO2

10-Day Weather Forecast

Almanac

Astronomy

Feb. 09, 2016 Rise Set
Actual Time
Civil Twilight
Nautical Twilight
Astronomical Twilight
Moon
Length of Visible Light
Length of Day
Tomorrow will be .
, % of the Moon is Illuminated

Today's Extremes

State Highs State Lows

Community

WunderPhotos

Upload Photos

1,891,744 photos uploaded!

WunderBlog® & News

Nearby

Air Quality

  Air Quality AQ Index Pollutant
Not available.

Snow Depth

Station Depth Elevation

Earthquake Activity

City Distance Mag. Time & Date
Minimum magnitude displayed is 2.5.

Coastal Water Temperatures

Place Temperature

Stations

Nearby Weather Stations

Station Location Temp. Windchill Dew Point Humidity Wind Precip. Elev Updated Type
                   

Watches & Warnings

Lake Wind Advisory
Issued: 2:32 PM EST Feb. 9, 2016 – National Weather Service

... Lake Wind Advisory remains in effect until 11 PM EST
Wednesday...

* timing... today through Wednesday evening.

* Winds... west 20 to 30 knots.

* Impacts... strong winds and rough chop will create hazardous
conditions for small craft and personal watercraft.

Precautionary/preparedness actions...

A lake Wind Advisory indicates that winds will cause rough chop
on area lakes. Small boats will be especially prone to capsizing.